Time;durP1;ratioP1;P1;durP2;ratioP2;P2;SDS_P1;SDS_P2;PMS_P1;PMS_P2;Temp;Humidity;BMP_temperature;BMP_pressure;BME280_temperature;BME280_humidity;BME280_pressure;Samples;Min_cycle;Max_cycle;Signal;HPM_P1;HPM_P2
2023/09/01 00:00:19;;;;;;;3.90;2.40;;;;;;;;;;107937;293;39851;-44
2023/09/01 00:03:16;;;;;;;3.90;2.20;;;;;;;;;;107900;293;43143;-42
2023/09/01 00:05:53;;;;;;;4.90;2.70;;;;;;;;;;107966;293;42852;-43
2023/09/01 00:08:28;;;;;;;4.00;2.20;;;;;;;;;;107908;293;41890;-43
2023/09/01 00:11:02;;;;;;;4.50;2.20;;;;;;;;;;107907;293;38672;-43
2023/09/01 00:13:40;;;;;;;4.30;2.30;;;;;;;;;;107878;293;39522;-43
2023/09/01 00:16:16;;;;;;;4.20;2.30;;;;;;;;;;107922;293;42746;-43
2023/09/01 00:18:51;;;;;;;4.40;2.30;;;;;;;;;;108001;293;41812;-43
2023/09/01 00:21:26;;;;;;;3.90;2.30;;;;;;;;;;107980;293;39832;-42
2023/09/01 00:24:02;;;;;;;4.00;2.40;;;;;;;;;;107954;293;39625;-41
2023/09/01 00:26:36;;;;;;;4.80;2.50;;;;;;;;;;107882;293;175607;-42
2023/09/01 00:29:09;;;;;;;4.60;2.10;;;;;;;;;;107979;293;41768;-41
2023/09/01 00:31:42;;;;;;;4.10;2.30;;;;;;;;;;107968;293;38537;-42
2023/09/01 00:34:15;;;;;;;4.40;2.60;;;;;;;;;;107932;293;46614;-42
2023/09/01 00:36:50;;;;;;;4.00;2.20;;;;;;;;;;107983;292;42512;-42
2023/09/01 00:39:24;;;;;;;4.10;2.20;;;;;;;;;;108002;293;42286;-41
2023/09/01 00:41:58;;;;;;;3.80;2.10;;;;;;;;;;107955;293;38668;-42
2023/09/01 00:44:31;;;;;;;4.80;2.40;;;;;;;;;;107896;293;47031;-42
2023/09/01 00:47:05;;;;;;;4.20;2.40;;;;;;;;;;107958;293;42568;-41
2023/09/01 00:49:40;;;;;;;3.70;2.30;;;;;;;;;;107993;292;41803;-41
2023/09/01 00:52:13;;;;;;;4.00;2.30;;;;;;;;;;107964;293;38518;-42
2023/09/01 00:54:47;;;;;;;4.10;2.30;;;;;;;;;;107933;293;45353;-42
2023/09/01 00:57:20;;;;;;;4.30;2.10;;;;;;;;;;107927;292;42758;-41
2023/09/01 00:59:54;;;;;;;4.40;2.20;;;;;;;;;;107969;293;42040;-42
2023/09/01 01:02:28;;;;;;;4.20;2.30;;;;;;;;;;107846;293;175020;-41
2023/09/01 01:05:10;;;;;;;3.80;2.20;;;;;;;;;;107938;293;45001;-43
2023/09/01 01:07:58;;;;;;;4.20;2.30;;;;;;;;;;107988;293;42697;-42
2023/09/01 01:10:42;;;;;;;4.10;2.20;;;;;;;;;;108004;293;41896;-42
2023/09/01 01:13:21;;;;;;;5.20;2.20;;;;;;;;;;107918;293;38632;-42
2023/09/01 01:15:57;;;;;;;3.60;2.00;;;;;;;;;;107986;293;39496;-42
2023/09/01 01:18:35;;;;;;;4.20;2.20;;;;;;;;;;107989;293;42912;-42
2023/09/01 01:21:17;;;;;;;4.00;2.30;;;;;;;;;;108007;293;43219;-42
2023/09/01 01:23:51;;;;;;;4.20;2.40;;;;;;;;;;107809;290;175587;-42
2023/09/01 01:26:25;;;;;;;4.20;2.30;;;;;;;;;;107982;293;39370;-42
2023/09/01 01:29:00;;;;;;;4.10;2.40;;;;;;;;;;107940;293;42797;-42
2023/09/01 01:31:34;;;;;;;4.60;2.20;;;;;;;;;;107925;293;41759;-42
2023/09/01 01:34:19;;;;;;;4.00;2.00;;;;;;;;;;107796;293;175604;-42
2023/09/01 01:37:02;;;;;;;4.60;2.10;;;;;;;;;;107952;293;39625;-42
2023/09/01 01:39:37;;;;;;;4.10;2.30;;;;;;;;;;107955;293;42512;-42
2023/09/01 01:42:14;;;;;;;4.40;2.10;;;;;;;;;;107962;293;42060;-42
2023/09/01 01:44:53;;;;;;;4.20;2.30;;;;;;;;;;107930;293;39094;-42
2023/09/01 01:47:26;;;;;;;3.80;2.30;;;;;;;;;;107995;293;39632;-41
2023/09/01 01:50:02;;;;;;;3.70;2.10;;;;;;;;;;107952;293;42761;-42
2023/09/01 01:52:38;;;;;;;3.80;2.10;;;;;;;;;;107944;293;43408;-42
2023/09/01 01:55:16;;;;;;;3.90;2.20;;;;;;;;;;107917;293;38908;-42
2023/09/01 01:57:50;;;;;;;3.60;2.10;;;;;;;;;;108008;293;39633;-42
2023/09/01 02:00:26;;;;;;;4.60;2.20;;;;;;;;;;107869;293;175639;-42
2023/09/01 02:03:00;;;;;;;3.80;2.20;;;;;;;;;;107973;293;42380;-41
2023/09/01 02:05:34;;;;;;;4.60;2.40;;;;;;;;;;107927;293;40219;-42
2023/09/01 02:08:08;;;;;;;4.00;2.20;;;;;;;;;;107957;293;39705;-42
2023/09/01 02:10:41;;;;;;;4.10;2.00;;;;;;;;;;107855;293;175638;-42
2023/09/01 02:13:15;;;;;;;4.20;2.10;;;;;;;;;;107931;293;42043;-41
2023/09/01 02:15:55;;;;;;;4.40;2.50;;;;;;;;;;107874;293;38719;-43
2023/09/01 02:18:31;;;;;;;3.80;2.20;;;;;;;;;;107982;293;39733;-41
2023/09/01 02:21:05;;;;;;;3.60;2.20;;;;;;;;;;107944;293;42963;-42
2023/09/01 02:23:38;;;;;;;3.90;2.20;;;;;;;;;;107924;293;43208;-42
2023/09/01 02:26:11;;;;;;;3.70;2.10;;;;;;;;;;107888;293;38724;-42
2023/09/01 02:28:44;;;;;;;4.20;2.20;;;;;;;;;;107935;293;39679;-43
2023/09/01 02:31:20;;;;;;;4.20;2.10;;;;;;;;;;107949;293;42890;-41
2023/09/01 02:33:54;;;;;;;4.20;2.40;;;;;;;;;;107998;293;42157;-42
2023/09/01 02:36:30;;;;;;;4.40;2.40;;;;;;;;;;107913;293;38469;-42
2023/09/01 02:39:06;;;;;;;4.50;2.30;;;;;;;;;;107956;293;40581;-43
2023/09/01 02:41:43;;;;;;;3.90;2.20;;;;;;;;;;107968;292;44039;-43
2023/09/01 02:44:20;;;;;;;3.90;2.20;;;;;;;;;;107896;293;43410;-42
2023/09/01 02:46:56;;;;;;;4.00;2.40;;;;;;;;;;107921;293;38738;-42
2023/09/01 02:49:30;;;;;;;4.00;2.20;;;;;;;;;;107973;293;39625;-42
2023/09/01 02:52:03;;;;;;;4.10;2.30;;;;;;;;;;107959;293;43006;-42
2023/09/01 02:54:38;;;;;;;4.40;2.40;;;;;;;;;;107990;293;42095;-42
2023/09/01 02:57:11;;;;;;;3.90;2.30;;;;;;;;;;107992;293;38740;-42
2023/09/01 02:59:45;;;;;;;4.40;2.40;;;;;;;;;;107971;293;40130;-43
2023/09/01 03:02:18;;;;;;;3.90;2.40;;;;;;;;;;107974;293;42924;-41
2023/09/01 03:04:55;;;;;;;4.50;2.50;;;;;;;;;;107993;293;41783;-42
2023/09/01 03:07:29;;;;;;;4.80;2.50;;;;;;;;;;108057;293;43601;-43
2023/09/01 03:10:06;;;;;;;4.40;2.40;;;;;;;;;;107993;293;39575;-42
2023/09/01 03:12:42;;;;;;;4.80;2.60;;;;;;;;;;107948;293;42784;-43
2023/09/01 03:15:16;;;;;;;4.20;2.30;;;;;;;;;;107959;293;41874;-42
2023/09/01 03:17:49;;;;;;;4.20;2.40;;;;;;;;;;107947;293;46635;-42
2023/09/01 03:20:26;;;;;;;3.90;2.40;;;;;;;;;;107962;293;39546;-42
2023/09/01 03:22:59;;;;;;;5.20;2.40;;;;;;;;;;108007;293;42564;-42
2023/09/01 03:25:32;;;;;;;4.60;2.30;;;;;;;;;;107916;293;42041;-42
2023/09/01 03:28:08;;;;;;;4.10;2.30;;;;;;;;;;107969;293;45560;-43
2023/09/01 03:30:43;;;;;;;4.40;2.40;;;;;;;;;;107981;293;39375;-42
2023/09/01 03:33:16;;;;;;;4.20;2.30;;;;;;;;;;107959;293;42746;-43
2023/09/01 03:35:50;;;;;;;4.60;2.50;;;;;;;;;;107970;293;41775;-43
2023/09/01 03:38:23;;;;;;;4.40;2.40;;;;;;;;;;107929;292;44725;-43
2023/09/01 03:40:58;;;;;;;4.60;2.50;;;;;;;;;;107936;293;39340;-42
2023/09/01 03:43:31;;;;;;;4.30;2.50;;;;;;;;;;107959;293;42796;-42
2023/09/01 03:46:05;;;;;;;4.00;2.40;;;;;;;;;;107914;293;42045;-43
2023/09/01 03:48:39;;;;;;;4.00;2.30;;;;;;;;;;107407;293;894739;-42
2023/09/01 03:51:17;;;;;;;4.70;2.50;;;;;;;;;;107989;293;40825;-42
2023/09/01 03:53:50;;;;;;;4.50;2.40;;;;;;;;;;108002;293;42556;-43
2023/09/01 03:56:24;;;;;;;4.20;2.20;;;;;;;;;;107941;293;41783;-42
2023/09/01 03:58:57;;;;;;;4.10;2.50;;;;;;;;;;108110;293;44521;-42
2023/09/01 04:01:31;;;;;;;4.60;2.40;;;;;;;;;;107969;293;39361;-42
2023/09/01 04:04:10;;;;;;;4.80;2.50;;;;;;;;;;107983;293;42540;-42
2023/09/01 04:06:43;;;;;;;4.00;2.60;;;;;;;;;;107955;293;41798;-42
2023/09/01 04:09:18;;;;;;;5.40;2.40;;;;;;;;;;107971;293;44490;-42
2023/09/01 04:11:56;;;;;;;5.20;2.50;;;;;;;;;;108006;293;39355;-42
2023/09/01 04:14:31;;;;;;;4.90;2.50;;;;;;;;;;107974;293;43895;-42
2023/09/01 04:17:04;;;;;;;4.30;2.30;;;;;;;;;;107916;293;42545;-42
2023/09/01 04:19:37;;;;;;;4.60;2.70;;;;;;;;;;107945;292;39784;-42
2023/09/01 04:22:11;;;;;;;4.20;2.20;;;;;;;;;;107925;293;39344;-42
2023/09/01 04:24:45;;;;;;;4.20;2.30;;;;;;;;;;107842;293;175620;-42
2023/09/01 04:27:18;;;;;;;4.00;2.10;;;;;;;;;;107978;293;41806;-43
2023/09/01 04:29:54;;;;;;;4.20;2.40;;;;;;;;;;107948;293;38719;-42
2023/09/01 04:32:44;;;;;;;4.10;2.30;;;;;;;;;;107945;293;39530;-42
2023/09/01 04:35:18;;;;;;;4.50;2.30;;;;;;;;;;108011;293;43991;-42
2023/09/01 04:37:51;;;;;;;3.90;2.20;;;;;;;;;;107962;293;43183;-42
2023/09/01 04:40:27;;;;;;;4.40;2.20;;;;;;;;;;107978;292;38904;-43
2023/09/01 04:43:00;;;;;;;4.90;2.20;;;;;;;;;;108033;293;40671;-43
2023/09/01 04:45:33;;;;;;;3.90;2.20;;;;;;;;;;107977;293;43014;-44
2023/09/01 04:48:08;;;;;;;3.80;2.00;;;;;;;;;;107933;293;42113;-43
2023/09/01 04:50:42;;;;;;;4.40;2.30;;;;;;;;;;107981;293;38966;-42
2023/09/01 04:53:15;;;;;;;4.30;2.10;;;;;;;;;;107899;293;39583;-42
2023/09/01 04:55:50;;;;;;;4.50;2.30;;;;;;;;;;107942;293;42716;-41
2023/09/01 04:58:26;;;;;;;4.30;2.40;;;;;;;;;;107969;293;42113;-42
2023/09/01 05:01:00;;;;;;;4.10;2.30;;;;;;;;;;107950;293;38680;-42
2023/09/01 05:03:33;;;;;;;3.80;2.20;;;;;;;;;;107919;293;41044;-43
2023/09/01 05:06:10;;;;;;;3.80;2.00;;;;;;;;;;107933;293;42868;-43
2023/09/01 05:08:44;;;;;;;4.90;2.00;;;;;;;;;;107654;293;331043;-42
2023/09/01 05:11:17;;;;;;;3.80;2.00;;;;;;;;;;107997;293;38490;-41
2023/09/01 05:13:51;;;;;;;4.30;2.10;;;;;;;;;;107988;293;39382;-42
2023/09/01 05:16:24;;;;;;;4.20;2.20;;;;;;;;;;107977;293;43821;-42
2023/09/01 05:18:57;;;;;;;5.10;2.10;;;;;;;;;;107911;293;43189;-42
2023/09/01 05:21:31;;;;;;;4.00;2.20;;;;;;;;;;107885;293;175611;-42
2023/09/01 05:24:09;;;;;;;3.60;2.10;;;;;;;;;;107987;293;39571;-42
2023/09/01 05:26:47;;;;;;;4.70;2.30;;;;;;;;;;107998;293;42753;-42
2023/09/01 05:29:20;;;;;;;4.00;2.00;;;;;;;;;;107953;293;41105;-42
2023/09/01 05:31:54;;;;;;;4.40;2.10;;;;;;;;;;107963;293;39112;-42
2023/09/01 05:34:27;;;;;;;3.90;1.90;;;;;;;;;;107950;293;39343;-42
2023/09/01 05:37:01;;;;;;;4.10;2.00;;;;;;;;;;107988;293;42552;-42
2023/09/01 05:39:34;;;;;;;3.80;2.10;;;;;;;;;;107919;293;41787;-42
2023/09/01 05:42:09;;;;;;;4.20;2.10;;;;;;;;;;107973;293;38733;-43
2023/09/01 05:44:42;;;;;;;4.60;2.20;;;;;;;;;;107992;293;39484;-42
2023/09/01 05:47:18;;;;;;;4.40;2.10;;;;;;;;;;108003;293;42698;-42
2023/09/01 05:49:53;;;;;;;3.90;2.10;;;;;;;;;;107957;293;42004;-42
2023/09/01 05:52:29;;;;;;;4.00;1.80;;;;;;;;;;107880;293;175636;-43
2023/09/01 05:55:02;;;;;;;4.10;2.10;;;;;;;;;;107983;293;39366;-41
2023/09/01 05:57:36;;;;;;;4.60;2.10;;;;;;;;;;107947;293;42511;-41
2023/09/01 06:00:19;;;;;;;4.60;2.20;;;;;;;;;;107908;293;41948;-42
2023/09/01 06:02:54;;;;;;;3.70;2.10;;;;;;;;;;108025;293;38613;-41
2023/09/01 06:05:28;;;;;;;4.00;2.10;;;;;;;;;;108036;293;39604;-41
2023/09/01 06:08:03;;;;;;;4.20;2.00;;;;;;;;;;108018;293;42572;-41
2023/09/01 06:10:37;;;;;;;4.20;2.00;;;;;;;;;;107941;293;43212;-42
2023/09/01 06:13:12;;;;;;;4.10;1.80;;;;;;;;;;107964;293;38629;-42
2023/09/01 06:15:48;;;;;;;3.80;1.90;;;;;;;;;;108014;293;40214;-41
2023/09/01 06:18:21;;;;;;;4.20;2.10;;;;;;;;;;107336;293;894795;-41
2023/09/01 06:20:54;;;;;;;4.10;1.80;;;;;;;;;;107957;293;42152;-41
2023/09/01 06:23:28;;;;;;;3.80;1.80;;;;;;;;;;107990;293;39897;-41
2023/09/01 06:26:03;;;;;;;4.10;1.90;;;;;;;;;;108042;293;39479;-43
2023/09/01 06:28:40;;;;;;;4.80;2.10;;;;;;;;;;108023;293;42523;-41
2023/09/01 06:31:16;;;;;;;4.50;2.00;;;;;;;;;;107977;293;41927;-41
2023/09/01 06:33:50;;;;;;;4.00;2.00;;;;;;;;;;107990;293;38519;-43
2023/09/01 06:36:23;;;;;;;4.50;1.90;;;;;;;;;;107984;293;39655;-43
2023/09/01 06:38:59;;;;;;;4.60;1.90;;;;;;;;;;107980;293;42537;-42
2023/09/01 06:41:33;;;;;;;3.30;1.80;;;;;;;;;;107970;292;41825;-41
2023/09/01 06:44:09;;;;;;;4.50;2.10;;;;;;;;;;107981;293;38550;-43
2023/09/01 06:46:46;;;;;;;3.70;1.80;;;;;;;;;;107975;293;39515;-40
2023/09/01 06:49:19;;;;;;;4.50;2.00;;;;;;;;;;107937;292;44000;-41
2023/09/01 06:51:58;;;;;;;3.80;1.90;;;;;;;;;;107955;293;42021;-41
2023/09/01 06:54:33;;;;;;;3.60;2.00;;;;;;;;;;108027;292;39801;-42
2023/09/01 06:57:08;;;;;;;4.10;1.80;;;;;;;;;;108006;293;39478;-41
2023/09/01 06:59:44;;;;;;;4.20;2.20;;;;;;;;;;107937;286;42834;-42
2023/09/01 07:02:17;;;;;;;3.80;1.80;;;;;;;;;;107950;286;43327;-42
2023/09/01 07:04:51;;;;;;;3.90;1.80;;;;;;;;;;107942;292;40372;-43
2023/09/01 07:07:24;;;;;;;4.60;2.10;;;;;;;;;;107965;293;39983;-45
2023/09/01 07:10:00;;;;;;;3.30;1.70;;;;;;;;;;107985;292;42527;-46
2023/09/01 07:12:35;;;;;;;3.70;1.60;;;;;;;;;;108009;293;42032;-41
2023/09/01 07:15:11;;;;;;;3.80;1.90;;;;;;;;;;108082;293;38478;-41
2023/09/01 07:17:46;;;;;;;3.90;1.60;;;;;;;;;;108120;293;39853;-41
2023/09/01 07:20:20;;;;;;;3.60;1.80;;;;;;;;;;108062;293;42504;-41
2023/09/01 07:22:54;;;;;;;4.10;1.60;;;;;;;;;;108004;293;42257;-40
2023/09/01 07:25:27;;;;;;;4.00;1.70;;;;;;;;;;108113;293;38502;-41
2023/09/01 07:28:01;;;;;;;4.80;1.70;;;;;;;;;;108122;293;39574;-41
2023/09/01 07:30:36;;;;;;;2.90;1.40;;;;;;;;;;108105;293;42731;-42
2023/09/01 07:33:12;;;;;;;3.60;1.50;;;;;;;;;;108065;293;42024;-40
2023/09/01 07:35:51;;;;;;;3.10;1.60;;;;;;;;;;108001;293;38543;-40
2023/09/01 07:38:25;;;;;;;3.40;1.50;;;;;;;;;;108067;293;39431;-40
2023/09/01 07:40:59;;;;;;;3.90;1.50;;;;;;;;;;108109;293;43020;-40
2023/09/01 07:43:32;;;;;;;4.50;1.60;;;;;;;;;;108004;293;47929;-40
2023/09/01 07:46:08;;;;;;;4.80;1.80;;;;;;;;;;108019;293;37874;-40
2023/09/01 07:48:42;;;;;;;4.40;1.80;;;;;;;;;;108125;293;39676;-40
2023/09/01 07:51:18;;;;;;;4.60;1.90;;;;;;;;;;108081;293;42776;-40
2023/09/01 07:53:55;;;;;;;5.10;1.60;;;;;;;;;;108043;293;46954;-40
2023/09/01 07:56:29;;;;;;;4.60;1.60;;;;;;;;;;108077;293;38573;-40
2023/09/01 07:59:08;;;;;;;4.90;1.80;;;;;;;;;;108072;293;40656;-40
2023/09/01 08:01:42;;;;;;;4.00;1.60;;;;;;;;;;108067;293;42530;-40
2023/09/01 08:04:15;;;;;;;5.40;1.80;;;;;;;;;;108060;293;48245;-40
2023/09/01 08:06:49;;;;;;;3.30;1.40;;;;;;;;;;108048;293;39776;-40
2023/09/01 08:09:22;;;;;;;3.70;1.60;;;;;;;;;;108010;293;39671;-40
2023/09/01 08:11:56;;;;;;;4.50;1.70;;;;;;;;;;107965;293;42813;-39
2023/09/01 08:14:30;;;;;;;3.50;1.40;;;;;;;;;;107992;293;48260;-40
2023/09/01 08:17:04;;;;;;;3.40;1.40;;;;;;;;;;108043;293;38524;-40
2023/09/01 08:19:40;;;;;;;3.60;1.50;;;;;;;;;;108060;293;39366;-39
2023/09/01 08:22:13;;;;;;;4.00;1.50;;;;;;;;;;107931;293;42800;-40
2023/09/01 08:24:46;;;;;;;4.30;1.50;;;;;;;;;;107988;293;48351;-39
2023/09/01 08:27:21;;;;;;;4.10;1.50;;;;;;;;;;108036;293;38737;-40
2023/09/01 08:29:54;;;;;;;3.00;1.40;;;;;;;;;;107995;293;39651;-40
2023/09/01 08:32:29;;;;;;;3.50;1.50;;;;;;;;;;107992;293;42807;-40
2023/09/01 08:35:03;;;;;;;3.80;1.40;;;;;;;;;;108023;293;48255;-41
2023/09/01 08:37:37;;;;;;;3.90;1.60;;;;;;;;;;108032;293;38700;-40
2023/09/01 08:40:13;;;;;;;3.10;1.30;;;;;;;;;;108026;293;40636;-40
2023/09/01 08:42:55;;;;;;;3.30;1.30;;;;;;;;;;107940;293;43140;-39
2023/09/01 08:45:31;;;;;;;3.20;1.10;;;;;;;;;;108031;293;48108;-39
2023/09/01 08:48:09;;;;;;;3.10;1.30;;;;;;;;;;108064;293;38734;-39
2023/09/01 08:50:43;;;;;;;3.20;1.30;;;;;;;;;;108008;293;39596;-39
2023/09/01 08:53:17;;;;;;;3.20;1.30;;;;;;;;;;107829;293;175673;-39
2023/09/01 08:55:50;;;;;;;3.20;1.10;;;;;;;;;;108013;293;43129;-39
2023/09/01 08:58:24;;;;;;;2.90;1.20;;;;;;;;;;107971;293;38781;-39
2023/09/01 09:00:58;;;;;;;5.10;1.50;;;;;;;;;;107992;293;41049;-40
2023/09/01 09:03:32;;;;;;;9.50;2.90;;;;;;;;;;107957;293;42569;-40
2023/09/01 09:06:07;;;;;;;10.70;4.30;;;;;;;;;;108031;293;41790;-40
2023/09/01 09:08:41;;;;;;;16.70;6.60;;;;;;;;;;108004;293;38725;-41
2023/09/01 09:11:18;;;;;;;20.30;7.30;;;;;;;;;;107987;293;40735;-39
2023/09/01 09:13:58;;;;;;;17.60;6.50;;;;;;;;;;108084;293;42582;-40
2023/09/01 09:16:58;;;;;;;16.00;6.20;;;;;;;;;;108086;293;43168;-40
2023/09/01 09:19:31;;;;;;;16.60;6.20;;;;;;;;;;108106;293;38736;-40
2023/09/01 09:22:11;;;;;;;15.50;5.80;;;;;;;;;;108085;293;39534;-40
2023/09/01 09:24:44;;;;;;;16.40;5.60;;;;;;;;;;108053;293;42759;-38
2023/09/01 09:27:22;;;;;;;10.80;4.20;;;;;;;;;;108104;293;42045;-39
2023/09/01 09:29:58;;;;;;;11.50;3.80;;;;;;;;;;108102;293;38492;-40
2023/09/01 09:32:32;;;;;;;11.50;3.90;;;;;;;;;;108114;293;40871;-40
2023/09/01 09:35:26;;;;;;;9.50;3.80;;;;;;;;;;107909;293;196080;-40
2023/09/01 09:38:02;;;;;;;9.60;3.10;;;;;;;;;;108062;293;41764;-40
2023/09/01 09:40:37;;;;;;;6.90;2.60;;;;;;;;;;108086;293;38486;-40
2023/09/01 09:43:13;;;;;;;6.40;2.40;;;;;;;;;;108106;293;40988;-40
2023/09/01 09:45:49;;;;;;;6.70;2.40;;;;;;;;;;108082;293;42507;-40
2023/09/01 09:48:22;;;;;;;6.50;2.20;;;;;;;;;;108080;293;43195;-40
2023/09/01 09:50:57;;;;;;;5.80;2.10;;;;;;;;;;108103;293;38685;-40
2023/09/01 09:53:37;;;;;;;5.30;1.80;;;;;;;;;;108079;293;39382;-40
2023/09/01 09:56:39;;;;;;;5.60;2.00;;;;;;;;;;108029;293;42551;-40
2023/09/01 09:59:18;;;;;;;5.10;1.60;;;;;;;;;;108109;293;41871;-40
2023/09/01 10:01:54;;;;;;;4.70;1.70;;;;;;;;;;108029;293;38660;-40
2023/09/01 10:04:30;;;;;;;4.20;1.60;;;;;;;;;;108075;293;39749;-40
2023/09/01 10:07:04;;;;;;;3.10;1.30;;;;;;;;;;108010;293;43233;-39
2023/09/01 10:09:38;;;;;;;3.70;1.40;;;;;;;;;;108010;293;41803;-40
2023/09/01 10:12:17;;;;;;;3.90;1.40;;;;;;;;;;108083;293;38699;-40
2023/09/01 10:14:56;;;;;;;4.10;1.30;;;;;;;;;;108025;293;39400;-40
2023/09/01 10:17:30;;;;;;;4.30;1.40;;;;;;;;;;108052;293;48851;-40
2023/09/01 10:20:06;;;;;;;3.90;1.40;;;;;;;;;;108065;293;42076;-40
2023/09/01 10:22:43;;;;;;;3.40;1.30;;;;;;;;;;108083;293;39038;-40
2023/09/01 10:25:22;;;;;;;3.80;1.20;;;;;;;;;;107972;293;39704;-40
2023/09/01 10:28:11;;;;;;;3.10;1.10;;;;;;;;;;108049;293;42837;-40
2023/09/01 10:30:48;;;;;;;3.00;1.10;;;;;;;;;;108019;293;42589;-40
2023/09/01 10:33:28;;;;;;;3.90;1.40;;;;;;;;;;108015;293;38692;-40
2023/09/01 10:36:17;;;;;;;2.70;1.10;;;;;;;;;;107992;293;40868;-41
2023/09/01 10:38:50;;;;;;;3.70;1.30;;;;;;;;;;108011;293;44007;-40
2023/09/01 10:41:53;;;;;;;3.50;1.20;;;;;;;;;;108027;293;175081;-40
2023/09/01 10:44:27;;;;;;;;;;;;;;;;;;108107;293;38852;-40
2023/09/01 10:47:45;;;;;;;3.60;1.40;;;;;;;;;;107862;293;175588;-40
2023/09/01 10:50:20;;;;;;;2.70;1.30;;;;;;;;;;108108;293;42952;-40
2023/09/01 10:53:33;;;;;;;2.20;1.00;;;;;;;;;;108096;293;42247;-40
2023/09/01 10:56:13;;;;;;;2.80;1.00;;;;;;;;;;108049;293;38868;-39
2023/09/01 10:58:57;;;;;;;2.80;1.10;;;;;;;;;;108142;293;39594;-41
2023/09/01 11:01:38;;;;;;;3.50;1.20;;;;;;;;;;108092;293;42996;-40
2023/09/01 11:04:31;;;;;;;2.70;1.00;;;;;;;;;;108112;293;43340;-39
2023/09/01 11:07:08;;;;;;;2.30;0.90;;;;;;;;;;107978;293;38707;-40
2023/09/01 11:10:04;;;;;;;3.40;1.20;;;;;;;;;;108045;293;40895;-40
2023/09/01 11:12:39;;;;;;;3.80;1.10;;;;;;;;;;108076;293;42944;-39
2023/09/01 11:15:16;;;;;;;2.90;0.90;;;;;;;;;;108037;293;42046;-40
2023/09/01 11:17:49;;;;;;;2.80;1.30;;;;;;;;;;108047;293;38725;-40
2023/09/01 11:20:33;;;;;;;2.50;1.10;;;;;;;;;;107954;293;175578;-40
2023/09/01 11:23:09;;;;;;;3.30;1.30;;;;;;;;;;107939;293;42810;-40
2023/09/01 11:25:43;;;;;;;2.70;1.10;;;;;;;;;;107893;293;175617;-39
2023/09/01 11:28:18;;;;;;;3.20;1.20;;;;;;;;;;107978;293;38765;-40
2023/09/01 11:31:02;;;;;;;2.80;1.20;;;;;;;;;;108025;293;39626;-40
2023/09/01 11:33:38;;;;;;;3.70;1.30;;;;;;;;;;108005;293;44948;-40
2023/09/01 11:36:15;;;;;;;3.00;1.30;;;;;;;;;;108007;293;42221;-40
2023/09/01 11:38:51;;;;;;;3.10;1.20;;;;;;;;;;108012;293;38813;-40
2023/09/01 11:41:26;;;;;;;2.70;1.20;;;;;;;;;;108006;293;39291;-40
2023/09/01 11:44:03;;;;;;;5.60;1.50;;;;;;;;;;108002;293;42740;-40
2023/09/01 11:46:39;;;;;;;2.90;1.20;;;;;;;;;;107911;293;196355;-40
2023/09/01 11:49:17;;;;;;;3.20;1.30;;;;;;;;;;108004;293;45794;-40
2023/09/01 11:51:52;;;;;;;4.40;1.40;;;;;;;;;;108022;293;39754;-40
2023/09/01 11:54:27;;;;;;;3.40;1.40;;;;;;;;;;107973;293;44355;-40
2023/09/01 11:57:16;;;;;;;3.20;1.20;;;;;;;;;;108011;293;42039;-40
2023/09/01 11:59:50;;;;;;;3.10;1.30;;;;;;;;;;108002;293;45943;-40
2023/09/01 12:02:24;;;;;;;3.80;1.50;;;;;;;;;;108037;293;39370;-40
2023/09/01 12:04:57;;;;;;;2.80;1.20;;;;;;;;;;108006;293;42859;-40
2023/09/01 12:07:33;;;;;;;3.10;1.30;;;;;;;;;;108000;293;42530;-40
2023/09/01 12:10:23;;;;;;;3.70;1.30;;;;;;;;;;108029;293;44985;-40
2023/09/01 12:13:09;;;;;;;3.40;1.30;;;;;;;;;;108011;293;39659;-40
2023/09/01 12:16:02;;;;;;;3.70;1.30;;;;;;;;;;108030;293;43219;-42
2023/09/01 12:18:40;;;;;;;4.30;1.20;;;;;;;;;;107924;293;42032;-43
2023/09/01 12:21:14;;;;;;;3.50;1.60;;;;;;;;;;108054;293;38741;-43
2023/09/01 12:23:48;;;;;;;3.20;1.50;;;;;;;;;;108044;293;39681;-42
2023/09/01 12:26:21;;;;;;;4.50;1.80;;;;;;;;;;108054;293;42774;-43
2023/09/01 12:28:54;;;;;;;4.00;1.80;;;;;;;;;;107999;293;42190;-43
2023/09/01 12:31:30;;;;;;;3.80;1.60;;;;;;;;;;107969;293;40053;-43
2023/09/01 12:34:03;;;;;;;3.50;1.60;;;;;;;;;;108000;293;40852;-43
2023/09/01 12:36:39;;;;;;;3.60;1.60;;;;;;;;;;108038;293;43021;-42
2023/09/01 12:39:13;;;;;;;4.00;1.60;;;;;;;;;;107973;293;41818;-48
2023/09/01 12:41:47;;;;;;;3.40;1.40;;;;;;;;;;108009;293;38651;-43
2023/09/01 12:44:21;;;;;;;2.70;1.40;;;;;;;;;;107979;293;39697;-43
2023/09/01 12:46:55;;;;;;;3.00;1.30;;;;;;;;;;107975;293;42838;-43
2023/09/01 12:49:28;;;;;;;2.80;1.30;;;;;;;;;;107957;293;41793;-43
2023/09/01 12:52:01;;;;;;;3.00;1.30;;;;;;;;;;107894;293;175523;-43
2023/09/01 12:54:34;;;;;;;3.10;1.30;;;;;;;;;;108036;293;39748;-43
2023/09/01 12:57:10;;;;;;;3.70;1.40;;;;;;;;;;108006;293;44147;-42
2023/09/01 12:59:43;;;;;;;3.60;1.40;;;;;;;;;;107935;293;41809;-43
2023/09/01 13:02:17;;;;;;;4.50;1.40;;;;;;;;;;107980;293;38756;-43
2023/09/01 13:04:51;;;;;;;3.40;1.30;;;;;;;;;;107951;293;39664;-43
2023/09/01 13:07:25;;;;;;;3.60;1.50;;;;;;;;;;107975;293;44066;-42
2023/09/01 13:09:58;;;;;;;3.10;1.40;;;;;;;;;;107703;293;330820;-42
2023/09/01 13:12:34;;;;;;;3.40;1.40;;;;;;;;;;108035;293;38775;-43
2023/09/01 13:15:11;;;;;;;2.90;1.20;;;;;;;;;;108116;293;39618;-42
2023/09/01 13:17:46;;;;;;;3.20;1.30;;;;;;;;;;108094;293;42984;-42
2023/09/01 13:20:21;;;;;;;3.50;1.20;;;;;;;;;;108061;293;41784;-43
2023/09/01 13:22:54;;;;;;;3.50;1.40;;;;;;;;;;108107;293;38798;-43
2023/09/01 13:25:29;;;;;;;3.00;1.30;;;;;;;;;;108064;293;39660;-43
2023/09/01 13:28:02;;;;;;;3.60;1.30;;;;;;;;;;108065;293;42943;-43
2023/09/01 13:30:37;;;;;;;2.50;1.20;;;;;;;;;;108091;293;43334;-44
2023/09/01 13:33:11;;;;;;;2.90;1.30;;;;;;;;;;108037;293;40028;-43
2023/09/01 13:35:46;;;;;;;2.90;1.30;;;;;;;;;;108106;293;40894;-45
2023/09/01 13:38:19;;;;;;;3.70;1.50;;;;;;;;;;108074;293;44261;-45
2023/09/01 13:40:58;;;;;;;3.10;1.50;;;;;;;;;;107993;293;42054;-42
2023/09/01 13:43:33;;;;;;;2.80;1.20;;;;;;;;;;108078;293;38750;-43
2023/09/01 13:46:22;;;;;;;3.80;1.30;;;;;;;;;;108076;293;39366;-43
2023/09/01 13:48:57;;;;;;;3.70;1.30;;;;;;;;;;108121;293;44424;-43
2023/09/01 13:51:31;;;;;;;2.90;1.40;;;;;;;;;;108086;293;42054;-43
2023/09/01 13:54:05;;;;;;;4.00;1.50;;;;;;;;;;108125;293;38685;-43
2023/09/01 13:56:40;;;;;;;4.50;1.50;;;;;;;;;;108014;293;39890;-43
2023/09/01 13:59:14;;;;;;;4.50;1.80;;;;;;;;;;108084;293;42829;-42
2023/09/01 14:01:48;;;;;;;3.60;1.40;;;;;;;;;;108061;293;42182;-43
2023/09/01 14:04:22;;;;;;;3.30;1.50;;;;;;;;;;108069;293;38734;-42
2023/09/01 14:06:55;;;;;;;3.10;1.20;;;;;;;;;;108073;293;41025;-43
2023/09/01 14:09:31;;;;;;;3.20;1.30;;;;;;;;;;108097;293;43017;-42
2023/09/01 14:12:08;;;;;;;3.30;1.40;;;;;;;;;;108022;293;42052;-42
2023/09/01 14:14:42;;;;;;;3.60;1.40;;;;;;;;;;108091;293;38689;-42
2023/09/01 14:17:15;;;;;;;3.40;1.30;;;;;;;;;;108063;293;39337;-43
2023/09/01 14:19:50;;;;;;;3.10;1.40;;;;;;;;;;108105;293;42842;-43
2023/09/01 14:22:24;;;;;;;3.90;1.60;;;;;;;;;;108057;293;42088;-43
2023/09/01 14:24:58;;;;;;;4.50;1.60;;;;;;;;;;108067;293;38701;-43
2023/09/01 14:27:32;;;;;;;3.00;1.40;;;;;;;;;;107913;293;175568;-43
2023/09/01 14:30:11;;;;;;;3.50;1.50;;;;;;;;;;108044;293;42896;-42
2023/09/01 14:32:44;;;;;;;3.50;1.50;;;;;;;;;;108149;293;48745;-42
2023/09/01 14:35:18;;;;;;;3.50;1.60;;;;;;;;;;108086;293;38901;-43
2023/09/01 14:37:51;;;;;;;3.30;1.40;;;;;;;;;;108072;293;39623;-43
2023/09/01 14:40:24;;;;;;;3.30;1.20;;;;;;;;;;108010;293;44337;-43
2023/09/01 14:42:58;;;;;;;3.50;1.30;;;;;;;;;;108026;293;50334;-43
2023/09/01 14:45:31;;;;;;;3.70;1.50;;;;;;;;;;108060;293;38707;-43
2023/09/01 14:48:05;;;;;;;3.50;1.40;;;;;;;;;;108087;293;39623;-43
2023/09/01 14:50:39;;;;;;;3.00;1.20;;;;;;;;;;108145;293;42972;-43
2023/09/01 14:53:15;;;;;;;2.80;1.20;;;;;;;;;;108030;293;46959;-44
2023/09/01 14:55:49;;;;;;;3.00;1.30;;;;;;;;;;108041;293;39978;-44
2023/09/01 14:58:23;;;;;;;4.00;1.40;;;;;;;;;;108091;293;39567;-43
2023/09/01 15:01:04;;;;;;;3.30;1.40;;;;;;;;;;108058;293;42621;-43
2023/09/01 15:03:39;;;;;;;4.70;1.70;;;;;;;;;;108010;293;47925;-43
2023/09/01 15:06:15;;;;;;;3.00;1.50;;;;;;;;;;108030;293;38546;-43
2023/09/01 15:08:49;;;;;;;4.00;1.60;;;;;;;;;;108083;293;39696;-43
2023/09/01 15:11:22;;;;;;;4.00;1.70;;;;;;;;;;107975;293;175196;-43
2023/09/01 15:13:56;;;;;;;3.30;1.30;;;;;;;;;;108021;293;47850;-44
2023/09/01 15:16:29;;;;;;;4.30;1.60;;;;;;;;;;107939;293;175014;-44
2023/09/01 15:19:04;;;;;;;4.00;1.70;;;;;;;;;;108036;293;41005;-43
2023/09/01 15:21:37;;;;;;;3.40;1.50;;;;;;;;;;108062;293;42998;-44
2023/09/01 15:24:11;;;;;;;3.70;1.60;;;;;;;;;;108017;293;47908;-44
2023/09/01 15:26:44;;;;;;;4.10;1.60;;;;;;;;;;108035;293;38777;-44
2023/09/01 15:29:17;;;;;;;3.80;1.60;;;;;;;;;;108045;293;39806;-44
2023/09/01 15:31:51;;;;;;;3.50;1.60;;;;;;;;;;108025;293;42774;-43
2023/09/01 15:34:25;;;;;;;3.90;1.50;;;;;;;;;;107991;293;49190;-42